createdAt,value
2018-07-07T00:00:54.560Z,4.70
2018-07-07T00:03:22.441Z,6.10
2018-07-07T00:05:50.356Z,5.93
2018-07-07T00:08:18.245Z,6.73
2018-07-07T00:10:56.189Z,5.70
2018-07-07T00:13:24.122Z,5.57
2018-07-07T00:15:51.938Z,5.60
2018-07-07T00:18:19.877Z,5.83
2018-07-07T00:20:47.731Z,4.77
2018-07-07T00:23:15.676Z,4.67
2018-07-07T00:25:43.669Z,5.37
2018-07-07T00:28:11.589Z,4.73
2018-07-07T00:30:39.521Z,6.20
2018-07-07T00:33:07.549Z,5.40
2018-07-07T00:35:35.433Z,5.00
2018-07-07T00:38:03.397Z,6.00
2018-07-07T00:40:31.274Z,4.97
2018-07-07T00:42:59.196Z,5.33
2018-07-07T00:45:27.129Z,6.80
2018-07-07T00:47:55.023Z,6.20
2018-07-07T00:50:22.965Z,5.63
2018-07-07T00:52:50.945Z,5.80
2018-07-07T00:55:18.804Z,6.70
2018-07-07T00:57:46.716Z,6.10
2018-07-07T01:00:14.645Z,6.13
2018-07-07T01:02:42.649Z,6.17
2018-07-07T01:05:27.806Z,7.37
2018-07-07T01:07:55.726Z,6.73
2018-07-07T01:10:23.615Z,7.33
2018-07-07T01:12:51.457Z,6.00
2018-07-07T01:15:19.272Z,7.30
2018-07-07T01:17:47.117Z,6.83
2018-07-07T01:20:15.077Z,5.37
2018-07-07T01:22:43.031Z,6.03
2018-07-07T01:25:10.961Z,6.73
2018-07-07T01:27:38.821Z,7.30
2018-07-07T01:30:06.842Z,6.57
2018-07-07T01:32:34.772Z,7.40
2018-07-07T01:35:02.709Z,6.40
2018-07-07T01:37:30.554Z,5.40
2018-07-07T01:39:58.392Z,6.27
2018-07-07T01:42:26.329Z,6.07
2018-07-07T01:44:54.247Z,7.00
2018-07-07T01:47:22.237Z,6.60
2018-07-07T01:49:50.039Z,6.70
2018-07-07T01:52:17.976Z,7.07
2018-07-07T01:54:45.866Z,6.30
2018-07-07T01:57:13.781Z,6.53
2018-07-07T01:59:41.677Z,6.43
2018-07-07T02:02:09.588Z,6.63
2018-07-07T02:04:37.543Z,6.37
2018-07-07T02:07:05.669Z,6.30
2018-07-07T02:09:33.580Z,6.07
2018-07-07T02:12:01.518Z,6.00
2018-07-07T02:14:29.415Z,6.20
2018-07-07T02:16:57.265Z,6.00
2018-07-07T02:19:25.161Z,6.43
2018-07-07T02:21:53.097Z,7.47
2018-07-07T02:24:21.073Z,6.83
2018-07-07T02:26:49.222Z,6.90
2018-07-07T02:29:17.121Z,6.47
2018-07-07T02:31:44.952Z,6.90
2018-07-07T02:34:12.807Z,6.77
2018-07-07T02:36:40.713Z,6.40
2018-07-07T02:39:08.622Z,6.50
2018-07-07T02:41:36.565Z,7.03
2018-07-07T02:44:04.616Z,7.03
2018-07-07T02:46:32.513Z,6.70
2018-07-07T02:49:00.357Z,7.63
2018-07-07T02:51:28.309Z,7.43
2018-07-07T02:53:56.414Z,6.73
2018-07-07T02:56:24.287Z,7.03
2018-07-07T02:58:52.148Z,6.57
2018-07-07T03:01:20.053Z,6.90
2018-07-07T03:03:47.957Z,7.27
2018-07-07T03:06:15.837Z,7.10
2018-07-07T03:08:43.766Z,7.77
2018-07-07T03:11:11.742Z,7.20
2018-07-07T03:13:39.599Z,6.83
2018-07-07T03:16:07.557Z,6.67
2018-07-07T03:18:35.521Z,5.73
2018-07-07T03:21:03.485Z,6.50
2018-07-07T03:23:31.402Z,6.30
2018-07-07T03:25:59.318Z,6.43
2018-07-07T03:28:27.478Z,6.03
2018-07-07T03:30:55.401Z,5.90
2018-07-07T03:33:23.348Z,5.60
2018-07-07T03:35:51.171Z,5.87
2018-07-07T03:38:19.125Z,5.87
2018-07-07T03:40:47.069Z,6.13
2018-07-07T03:43:14.944Z,6.60
2018-07-07T03:45:42.896Z,5.70
2018-07-07T03:48:10.831Z,5.97
2018-07-07T03:50:38.771Z,5.60
2018-07-07T03:53:06.656Z,5.43
2018-07-07T03:55:34.597Z,5.93
2018-07-07T03:58:02.535Z,5.97
2018-07-07T04:00:30.324Z,4.93
2018-07-07T04:02:58.209Z,6.00
2018-07-07T04:05:26.104Z,5.93
2018-07-07T04:07:54.881Z,5.83
2018-07-07T04:10:22.789Z,5.73
2018-07-07T04:12:50.705Z,5.90
2018-07-07T04:15:18.661Z,5.53
2018-07-07T04:17:46.685Z,7.00
2018-07-07T04:20:14.593Z,5.87
2018-07-07T04:22:42.433Z,6.10
2018-07-07T04:25:10.398Z,5.93
2018-07-07T04:27:38.361Z,6.00
2018-07-07T04:30:06.328Z,5.77
2018-07-07T04:32:34.249Z,6.23
2018-07-07T04:35:02.096Z,5.33
2018-07-07T04:37:30.032Z,5.43
2018-07-07T04:39:57.864Z,5.67
2018-07-07T04:42:25.660Z,5.80
2018-07-07T04:44:53.537Z,5.13
2018-07-07T04:47:21.405Z,5.47
2018-07-07T04:49:49.373Z,5.67
2018-07-07T04:52:17.350Z,5.03
2018-07-07T04:54:45.247Z,4.93
2018-07-07T04:57:13.280Z,4.93
2018-07-07T04:59:41.161Z,5.20
2018-07-07T05:02:09.033Z,5.20
2018-07-07T05:04:36.968Z,4.63
2018-07-07T05:07:04.961Z,4.43
2018-07-07T05:09:32.801Z,5.17
2018-07-07T05:12:00.730Z,4.73
2018-07-07T05:14:28.772Z,4.63
2018-07-07T05:16:56.640Z,5.80
2018-07-07T05:19:24.445Z,5.00
2018-07-07T05:21:52.385Z,4.80
2018-07-07T05:24:20.283Z,5.00
2018-07-07T05:26:48.274Z,5.17
2018-07-07T05:29:16.175Z,4.97
2018-07-07T05:31:44.149Z,4.73
2018-07-07T05:34:12.122Z,5.20
2018-07-07T05:36:40.046Z,5.07
2018-07-07T05:39:08.049Z,4.80
2018-07-07T05:41:36.213Z,5.07
2018-07-07T05:44:04.218Z,4.53
2018-07-07T05:46:32.497Z,5.00
2018-07-07T05:49:00.569Z,4.77
2018-07-07T05:51:28.559Z,4.43
2018-07-07T05:53:56.423Z,4.60
2018-07-07T05:56:24.267Z,4.93
2018-07-07T05:58:52.465Z,4.90
2018-07-07T06:01:20.509Z,4.80
2018-07-07T06:03:48.429Z,4.47
2018-07-07T06:06:16.557Z,4.40
2018-07-07T06:08:44.441Z,4.67
2018-07-07T06:11:12.472Z,4.80
2018-07-07T06:13:40.522Z,4.30
2018-07-07T06:16:08.540Z,4.13
2018-07-07T06:18:36.449Z,4.33
2018-07-07T06:21:04.769Z,4.20
2018-07-07T06:23:32.690Z,4.40
2018-07-07T06:26:00.716Z,4.30
2018-07-07T06:28:28.757Z,4.20
2018-07-07T06:30:56.714Z,4.60
2018-07-07T06:33:25.434Z,4.30
2018-07-07T06:35:53.479Z,4.00
2018-07-07T06:38:21.593Z,4.07
2018-07-07T06:40:49.749Z,4.47
2018-07-07T06:43:17.637Z,3.93
2018-07-07T06:45:45.559Z,4.73
2018-07-07T06:48:13.561Z,4.13
2018-07-07T06:50:41.521Z,4.60
2018-07-07T06:53:09.464Z,4.33
2018-07-07T06:55:37.380Z,3.73
2018-07-07T06:58:05.426Z,4.17
2018-07-07T07:00:33.309Z,4.33
2018-07-07T07:03:01.205Z,4.10
2018-07-07T07:05:29.180Z,4.10
2018-07-07T07:07:56.972Z,3.73
2018-07-07T07:10:25.104Z,4.13
2018-07-07T07:12:53.145Z,3.63
2018-07-07T07:15:21.056Z,3.60
2018-07-07T07:17:49.014Z,3.67
2018-07-07T07:20:16.877Z,3.43
2018-07-07T07:22:44.729Z,3.20
2018-07-07T07:25:13.546Z,3.13
2018-07-07T07:27:42.531Z,3.47
2018-07-07T07:30:10.481Z,3.27
2018-07-07T07:32:38.422Z,3.23
2018-07-07T07:35:06.281Z,3.50
2018-07-07T07:37:34.197Z,3.40
2018-07-07T07:40:02.262Z,3.50
2018-07-07T07:42:30.176Z,3.30
2018-07-07T07:44:58.093Z,2.90
2018-07-07T07:47:26.092Z,2.43
2018-07-07T07:49:53.983Z,3.30
2018-07-07T07:52:21.977Z,3.23
2018-07-07T07:54:49.950Z,2.97
2018-07-07T07:57:17.880Z,2.57
2018-07-07T07:59:45.860Z,3.37
2018-07-07T08:02:13.792Z,2.83
2018-07-07T08:04:41.655Z,2.43
2018-07-07T08:07:09.921Z,2.33
2018-07-07T08:09:37.927Z,2.77
2018-07-07T08:12:05.945Z,2.80
2018-07-07T08:14:33.900Z,2.70
2018-07-07T08:17:01.806Z,3.07
2018-07-07T08:19:29.653Z,2.40
2018-07-07T08:21:57.533Z,2.57
2018-07-07T08:24:25.404Z,2.57
2018-07-07T08:26:53.413Z,2.50
2018-07-07T08:29:21.333Z,2.63
2018-07-07T08:31:49.349Z,2.40
2018-07-07T08:34:17.209Z,2.63
2018-07-07T08:36:45.153Z,2.37
2018-07-07T08:39:13.347Z,2.53
2018-07-07T08:41:41.879Z,2.37
2018-07-07T08:44:10.594Z,2.17
2018-07-07T08:46:38.401Z,2.33
2018-07-07T08:49:06.444Z,2.23
2018-07-07T08:51:34.355Z,2.30
2018-07-07T08:54:02.294Z,2.10
2018-07-07T08:56:30.284Z,2.40
2018-07-07T08:58:58.176Z,2.10
2018-07-07T09:01:26.117Z,2.33
2018-07-07T09:03:54.101Z,2.70
2018-07-07T09:06:22.007Z,2.17
2018-07-07T09:08:49.862Z,2.53
2018-07-07T09:11:17.780Z,2.60
2018-07-07T09:13:45.677Z,2.50
2018-07-07T09:16:13.557Z,2.50
2018-07-07T09:18:41.578Z,2.40
2018-07-07T09:21:09.437Z,2.10
2018-07-07T09:23:37.257Z,3.03
2018-07-07T09:26:05.803Z,2.17
2018-07-07T09:28:33.708Z,2.70
2018-07-07T09:31:01.611Z,3.20
2018-07-07T09:33:29.567Z,2.90
2018-07-07T09:35:57.567Z,3.40
2018-07-07T09:38:25.489Z,2.80
2018-07-07T09:40:53.398Z,3.03
2018-07-07T09:43:21.337Z,4.07
2018-07-07T09:45:49.209Z,3.70
2018-07-07T09:48:18.059Z,3.23
2018-07-07T09:50:46.109Z,3.13
2018-07-07T09:53:15.587Z,3.97
2018-07-07T09:55:47.144Z,4.30
2018-07-07T09:58:16.020Z,3.33
2018-07-07T10:00:47.179Z,3.40
2018-07-07T10:03:15.101Z,3.97
2018-07-07T10:05:43.080Z,4.10
2018-07-07T10:08:10.984Z,4.00
2018-07-07T10:10:38.817Z,4.07
2018-07-07T10:13:06.957Z,4.33
2018-07-07T10:15:35.184Z,4.13
2018-07-07T10:18:03.965Z,3.77
2018-07-07T10:20:32.628Z,3.80
2018-07-07T10:23:00.604Z,4.10
2018-07-07T10:25:28.459Z,6.63
2018-07-07T10:27:56.410Z,3.67
2018-07-07T10:30:25.761Z,3.43
2018-07-07T10:32:53.981Z,3.60
2018-07-07T10:35:21.892Z,3.63
2018-07-07T10:37:49.824Z,3.47
2018-07-07T10:40:19.223Z,3.80
2018-07-07T10:42:47.637Z,3.40
2018-07-07T10:45:15.549Z,3.40
2018-07-07T10:47:43.424Z,3.30
2018-07-07T10:50:12.069Z,2.90
2018-07-07T10:52:39.916Z,3.90
2018-07-07T10:55:07.829Z,4.17
2018-07-07T10:57:35.697Z,3.50
2018-07-07T11:00:04.317Z,3.35
2018-07-07T11:02:32.253Z,3.20
2018-07-07T11:05:00.061Z,3.37
2018-07-07T11:07:27.979Z,3.52
2018-07-07T11:09:55.909Z,3.52
2018-07-07T11:12:23.817Z,3.85
2018-07-07T11:14:52.583Z,3.45
2018-07-07T11:17:20.413Z,3.42
2018-07-07T11:19:48.374Z,3.30
2018-07-07T11:22:16.375Z,3.50
2018-07-07T11:24:44.212Z,3.90
2018-07-07T11:27:12.351Z,3.87
2018-07-07T11:29:40.640Z,3.10
2018-07-07T11:32:08.780Z,3.40
2018-07-07T11:34:36.688Z,3.58
2018-07-07T11:37:04.897Z,3.20
2018-07-07T11:39:32.824Z,3.50
2018-07-07T11:42:00.756Z,3.50
2018-07-07T11:44:28.641Z,3.62
2018-07-07T11:46:56.594Z,3.50
2018-07-07T11:49:24.512Z,3.83
2018-07-07T11:51:52.396Z,3.72
2018-07-07T11:54:20.341Z,3.70
2018-07-07T11:56:48.290Z,3.33
2018-07-07T11:59:16.096Z,3.37
2018-07-07T12:01:44.045Z,3.37
2018-07-07T12:04:11.966Z,3.22
2018-07-07T12:06:39.894Z,3.62
2018-07-07T12:09:07.914Z,3.33
2018-07-07T12:11:36.079Z,3.08
2018-07-07T12:14:04.050Z,3.08
2018-07-07T12:16:31.961Z,2.77
2018-07-07T12:18:59.956Z,2.60
2018-07-07T12:21:27.909Z,2.58
2018-07-07T12:23:55.831Z,2.87
2018-07-07T12:26:23.652Z,2.87
2018-07-07T12:28:51.593Z,2.27
2018-07-07T12:31:19.559Z,2.77
2018-07-07T12:33:47.456Z,2.70
2018-07-07T12:36:21.209Z,2.62
2018-07-07T12:38:49.245Z,2.92
2018-07-07T12:41:17.200Z,2.65
2018-07-07T12:43:47.719Z,2.77
2018-07-07T12:46:15.749Z,3.20
2018-07-07T12:48:44.554Z,3.02
2018-07-07T12:51:12.558Z,2.87
2018-07-07T12:53:43.553Z,2.50
2018-07-07T12:56:13.670Z,2.83
2018-07-07T12:58:41.632Z,3.35
2018-07-07T13:01:09.518Z,3.50
2018-07-07T13:03:37.421Z,3.25
2018-07-07T13:06:05.848Z,2.85
2018-07-07T13:08:33.778Z,3.12
2018-07-07T13:11:01.733Z,3.30
2018-07-07T13:13:29.722Z,3.50
2018-07-07T13:15:57.667Z,3.60
2018-07-07T13:18:25.599Z,4.10
2018-07-07T13:20:53.549Z,3.27
2018-07-07T13:23:21.449Z,3.90
2018-07-07T13:25:49.328Z,3.97
2018-07-07T13:28:17.201Z,3.60
2018-07-07T13:30:45.198Z,3.40
2018-07-07T13:33:14.214Z,3.60
2018-07-07T13:35:41.993Z,3.73
2018-07-07T13:38:09.928Z,3.90
2018-07-07T13:40:37.855Z,3.63
2018-07-07T13:43:05.721Z,4.17
2018-07-07T13:45:33.925Z,3.60
2018-07-07T13:48:01.806Z,3.70
2018-07-07T13:50:29.825Z,3.50
2018-07-07T13:52:57.888Z,3.57
2018-07-07T13:55:25.884Z,3.40
2018-07-07T13:57:53.797Z,3.67
2018-07-07T14:00:21.721Z,3.83
2018-07-07T14:02:49.613Z,3.30
2018-07-07T14:05:17.545Z,3.13
2018-07-07T14:07:45.469Z,3.20
2018-07-07T14:10:13.401Z,3.53
2018-07-07T14:12:41.373Z,2.87
2018-07-07T14:15:09.229Z,4.37
2018-07-07T14:17:37.275Z,4.60
2018-07-07T14:20:05.260Z,2.87
2018-07-07T14:22:33.169Z,3.37
2018-07-07T14:25:01.217Z,3.03
2018-07-07T14:27:29.108Z,2.60
2018-07-07T14:29:57.002Z,2.70
2018-07-07T14:32:24.942Z,2.43
2018-07-07T14:34:53.131Z,2.77
2018-07-07T14:37:21.079Z,2.70
2018-07-07T14:39:54.129Z,2.80
2018-07-07T14:42:51.149Z,2.40
2018-07-07T14:45:29.998Z,2.80
2018-07-07T14:48:00.604Z,2.40
2018-07-07T14:50:28.886Z,3.20
2018-07-07T14:52:56.880Z,2.13
2018-07-07T14:55:26.894Z,2.87
2018-07-07T14:57:54.793Z,2.40
2018-07-07T15:00:26.022Z,2.77
2018-07-07T15:02:55.025Z,2.30
2018-07-07T15:05:23.627Z,2.13
2018-07-07T15:07:51.702Z,2.47
2018-07-07T15:10:25.355Z,2.27
2018-07-07T15:12:53.489Z,2.20
2018-07-07T15:15:21.357Z,2.20
2018-07-07T15:17:49.133Z,2.27
2018-07-07T15:20:17.129Z,2.20
2018-07-07T15:22:45.097Z,2.40
2018-07-07T15:25:12.841Z,2.63
2018-07-07T15:27:40.843Z,2.27
2018-07-07T15:30:09.597Z,2.30
2018-07-07T15:32:37.773Z,2.40
2018-07-07T15:35:05.852Z,2.20
2018-07-07T15:37:33.837Z,2.57
2018-07-07T15:40:01.809Z,2.97
2018-07-07T15:42:29.777Z,2.30
2018-07-07T15:44:57.713Z,2.77
2018-07-07T15:47:25.750Z,2.60
2018-07-07T15:49:54.109Z,2.30
2018-07-07T15:52:22.809Z,3.00
2018-07-07T15:54:50.794Z,2.57
2018-07-07T15:57:18.748Z,2.83
2018-07-07T15:59:46.902Z,2.67
2018-07-07T16:02:14.829Z,2.63
2018-07-07T16:04:42.937Z,2.20
2018-07-07T16:07:11.008Z,2.10
2018-07-07T16:09:38.972Z,2.50
2018-07-07T16:12:06.962Z,2.20
2018-07-07T16:14:35.065Z,2.30
2018-07-07T16:17:03.504Z,2.60
2018-07-07T16:19:31.448Z,1.87
2018-07-07T16:22:00.524Z,2.00
2018-07-07T16:24:28.508Z,2.27
2018-07-07T16:26:59.631Z,2.20
2018-07-07T16:29:27.573Z,2.00
2018-07-07T16:31:55.525Z,2.03
2018-07-07T16:34:23.520Z,2.40
2018-07-07T16:36:52.088Z,1.90
2018-07-07T16:39:20.245Z,2.10
2018-07-07T16:41:48.217Z,2.13
2018-07-07T16:44:16.320Z,2.33
2018-07-07T16:46:44.366Z,2.17
2018-07-07T16:49:12.620Z,2.27
2018-07-07T16:51:40.785Z,1.77
2018-07-07T16:54:08.769Z,1.80
2018-07-07T16:56:36.728Z,2.13
2018-07-07T16:59:04.717Z,2.47
2018-07-07T17:01:32.860Z,1.80
2018-07-07T17:04:00.773Z,2.00
2018-07-07T17:06:29.516Z,2.27
2018-07-07T17:08:57.505Z,2.20
2018-07-07T17:11:26.284Z,2.07
2018-07-07T17:13:54.269Z,2.03
2018-07-07T17:16:24.893Z,2.10
2018-07-07T17:18:52.849Z,2.10
2018-07-07T17:21:22.452Z,1.93
2018-07-07T17:23:54.424Z,1.97
2018-07-07T17:26:25.511Z,2.03
2018-07-07T17:28:56.539Z,1.90
2018-07-07T17:31:27.310Z,2.17
2018-07-07T17:33:58.395Z,1.80
2018-07-07T17:36:26.849Z,2.00
2018-07-07T17:38:56.874Z,2.00
2018-07-07T17:41:24.920Z,1.97
2018-07-07T17:43:52.798Z,3.37
2018-07-07T17:46:21.077Z,3.77
2018-07-07T17:48:49.064Z,2.40
2018-07-07T17:51:17.872Z,4.80
2018-07-07T17:53:46.134Z,3.10
2018-07-07T17:56:16.003Z,2.63
2018-07-07T17:58:45.301Z,2.43
2018-07-07T18:01:15.333Z,2.27
2018-07-07T18:03:45.361Z,2.10
2018-07-07T18:06:13.361Z,2.33
2018-07-07T18:08:41.495Z,2.20
2018-07-07T18:11:09.817Z,2.23
2018-07-07T18:13:38.166Z,2.23
2018-07-07T18:16:10.889Z,1.93
2018-07-07T18:18:39.956Z,1.90
2018-07-07T18:21:08.443Z,1.80
2018-07-07T18:23:36.589Z,2.10
2018-07-07T18:26:09.426Z,1.87
2018-07-07T18:28:37.425Z,2.10
2018-07-07T18:31:05.572Z,2.40
2018-07-07T18:33:34.189Z,2.03
2018-07-07T18:36:02.977Z,2.20
2018-07-07T18:38:31.969Z,2.27
2018-07-07T18:41:00.521Z,2.30
2018-07-07T18:43:28.475Z,2.27
2018-07-07T18:45:56.700Z,2.03
2018-07-07T18:48:25.016Z,2.23
2018-07-07T18:50:53.802Z,2.40
2018-07-07T18:53:21.834Z,2.10
2018-07-07T18:55:50.436Z,2.10
2018-07-07T18:58:19.008Z,2.13
2018-07-07T19:00:47.965Z,2.20
2018-07-07T19:03:18.925Z,2.10
2018-07-07T19:05:47.154Z,1.93
2018-07-07T19:08:15.381Z,2.27
2018-07-07T19:10:44.681Z,2.37
2018-07-07T19:13:13.673Z,2.10
2018-07-07T19:15:45.588Z,2.17
2018-07-07T19:18:16.441Z,2.40
2018-07-07T19:20:50.112Z,2.20
2018-07-07T19:23:23.576Z,2.80
2018-07-07T19:25:57.369Z,2.70
2018-07-07T19:28:26.387Z,2.10
2018-07-07T19:30:54.533Z,2.60
2018-07-07T19:33:28.413Z,2.40
2018-07-07T19:36:01.891Z,2.60
2018-07-07T19:38:29.829Z,2.33
2018-07-07T19:40:57.691Z,2.30
2018-07-07T19:43:25.517Z,2.50
2018-07-07T19:45:53.388Z,2.17
2018-07-07T19:48:21.321Z,2.37
2018-07-07T19:50:49.322Z,2.30
2018-07-07T19:53:17.189Z,2.40
2018-07-07T19:55:45.081Z,2.10
2018-07-07T19:58:13.000Z,2.50
2018-07-07T20:00:40.849Z,2.53
2018-07-07T20:03:08.793Z,2.23
2018-07-07T20:05:36.716Z,2.80
2018-07-07T20:08:04.620Z,2.70
2018-07-07T20:10:32.593Z,2.97
2018-07-07T20:13:00.445Z,2.27
2018-07-07T20:15:45.622Z,2.30
2018-07-07T20:18:13.694Z,2.43
2018-07-07T20:21:03.001Z,2.30
2018-07-07T20:23:30.985Z,2.30
2018-07-07T20:26:02.057Z,1.93
2018-07-07T20:28:35.768Z,2.33
2018-07-07T20:31:03.751Z,2.40
2018-07-07T20:33:31.636Z,2.07
2018-07-07T20:35:59.609Z,1.93
2018-07-07T20:38:27.677Z,2.30
2018-07-07T20:40:55.562Z,2.47
2018-07-07T20:43:23.459Z,2.30
2018-07-07T20:45:51.573Z,2.53
2018-07-07T20:48:19.485Z,2.13
2018-07-07T20:50:47.381Z,2.10
2018-07-07T20:53:15.327Z,2.30
2018-07-07T20:55:43.286Z,2.23
2018-07-07T20:58:11.218Z,2.10
2018-07-07T21:00:39.125Z,2.20
2018-07-07T21:03:07.057Z,2.00
2018-07-07T21:05:35.067Z,2.40
2018-07-07T21:08:03.080Z,2.27
2018-07-07T21:10:30.873Z,2.27
2018-07-07T21:12:59.006Z,2.50
2018-07-07T21:15:26.921Z,2.30
2018-07-07T21:17:54.888Z,2.00
2018-07-07T21:20:22.708Z,2.20
2018-07-07T21:22:54.837Z,2.53
2018-07-07T21:25:23.152Z,2.50
2018-07-07T21:27:51.009Z,2.63
2018-07-07T21:30:18.837Z,2.33
2018-07-07T21:32:47.106Z,2.23
2018-07-07T21:35:14.978Z,2.27
2018-07-07T21:37:42.905Z,2.07
2018-07-07T21:40:10.805Z,2.57
2018-07-07T21:42:38.732Z,2.57
2018-07-07T21:45:06.831Z,2.53
2018-07-07T21:47:34.725Z,2.73
2018-07-07T21:50:02.728Z,2.70
2018-07-07T21:52:30.640Z,2.50
2018-07-07T21:54:58.542Z,3.10
2018-07-07T21:57:36.431Z,3.27
2018-07-07T22:00:05.601Z,2.93
2018-07-07T22:02:39.653Z,2.90
2018-07-07T22:05:16.701Z,2.90
2018-07-07T22:07:44.818Z,2.87
2018-07-07T22:10:14.711Z,2.83
2018-07-07T22:12:44.866Z,2.73
2018-07-07T22:15:12.745Z,2.43
2018-07-07T22:17:42.090Z,2.80
2018-07-07T22:20:13.515Z,2.97
2018-07-07T22:22:45.688Z,3.37
2018-07-07T22:25:15.166Z,3.03
2018-07-07T22:27:43.089Z,2.60
2018-07-07T22:30:12.059Z,3.10
2018-07-07T22:32:42.968Z,3.00
2018-07-07T22:35:16.813Z,3.03
2018-07-07T22:37:44.657Z,2.80
2018-07-07T22:40:12.552Z,3.13
2018-07-07T22:42:40.469Z,2.53
2018-07-07T22:45:08.386Z,2.73
2018-07-07T22:47:36.297Z,3.60
2018-07-07T22:50:04.294Z,2.70
2018-07-07T22:52:32.191Z,2.60
2018-07-07T22:55:00.099Z,3.27
2018-07-07T22:57:27.989Z,2.83
2018-07-07T22:59:55.857Z,2.67
2018-07-07T23:02:23.893Z,2.70
2018-07-07T23:04:51.896Z,3.10
2018-07-07T23:07:19.739Z,3.10
2018-07-07T23:09:47.646Z,3.20
2018-07-07T23:12:15.525Z,3.03
2018-07-07T23:14:43.615Z,2.60
2018-07-07T23:17:11.509Z,3.33
2018-07-07T23:19:39.356Z,2.70
2018-07-07T23:22:07.281Z,2.80
2018-07-07T23:24:35.236Z,3.40
2018-07-07T23:27:03.165Z,2.80
2018-07-07T23:29:31.170Z,3.43
2018-07-07T23:31:59.191Z,2.90
2018-07-07T23:34:27.085Z,3.23
2018-07-07T23:36:55.021Z,2.80
2018-07-07T23:39:22.901Z,3.00
2018-07-07T23:41:50.803Z,2.87
2018-07-07T23:44:18.780Z,2.83
2018-07-07T23:46:46.674Z,3.00
2018-07-07T23:49:14.627Z,3.10
2018-07-07T23:51:42.721Z,3.07
2018-07-07T23:54:10.776Z,3.07
2018-07-07T23:56:38.704Z,2.63
2018-07-07T23:59:06.802Z,2.73
